createdAt,value
2022-10-29T00:02:05.614Z,13.22
2022-10-29T00:04:35.310Z,13.23
2022-10-29T00:07:04.250Z,13.19
2022-10-29T00:09:35.650Z,13.17
2022-10-29T00:12:06.062Z,13.17
2022-10-29T00:14:36.263Z,13.13
2022-10-29T00:17:04.822Z,13.06
2022-10-29T00:19:34.759Z,13.03
2022-10-29T00:22:07.453Z,13.05
2022-10-29T00:24:41.397Z,13.04
2022-10-29T00:27:24.654Z,12.96
2022-10-29T00:29:54.772Z,12.97
2022-10-29T00:32:23.656Z,12.92
2022-10-29T00:34:52.381Z,12.89
2022-10-29T00:37:21.314Z,12.94
2022-10-29T00:39:53.226Z,12.96
2022-10-29T00:42:25.535Z,12.94
2022-10-29T00:44:54.289Z,12.94
2022-10-29T00:47:27.584Z,12.88
2022-10-29T00:50:06.912Z,12.85
2022-10-29T00:52:46.070Z,12.87
2022-10-29T00:55:18.010Z,12.86
2022-10-29T00:57:54.372Z,12.81
2022-10-29T01:00:23.860Z,12.84
2022-10-29T01:02:53.371Z,12.82
2022-10-29T01:05:27.085Z,12.82
2022-10-29T01:07:57.436Z,12.79
2022-10-29T01:10:44.936Z,12.75
2022-10-29T01:13:50.001Z,12.65
2022-10-29T01:16:32.884Z,12.56
2022-10-29T01:19:15.415Z,12.57
2022-10-29T01:21:47.174Z,12.60
2022-10-29T01:25:00.658Z,12.56
2022-10-29T01:28:08.739Z,12.52
2022-10-29T01:31:10.007Z,12.54
2022-10-29T01:33:49.635Z,12.51
2022-10-29T01:36:30.697Z,12.51
2022-10-29T01:39:09.120Z,12.54
2022-10-29T01:41:54.048Z,12.56
2022-10-29T01:44:35.002Z,12.53
2022-10-29T01:47:16.000Z,12.50
2022-10-29T01:49:49.923Z,12.53
2022-10-29T01:52:25.652Z,12.54
2022-10-29T01:54:54.606Z,12.47
2022-10-29T01:57:36.805Z,12.49
2022-10-29T02:00:12.139Z,12.51
2022-10-29T02:03:03.688Z,12.51
2022-10-29T02:05:43.529Z,12.52
2022-10-29T02:08:27.750Z,12.51
2022-10-29T02:11:05.671Z,12.50
2022-10-29T02:13:42.072Z,12.42
2022-10-29T02:16:19.485Z,12.41
2022-10-29T02:18:51.218Z,12.44
2022-10-29T02:21:22.253Z,12.46
2022-10-29T02:23:58.995Z,12.46
2022-10-29T02:26:29.771Z,12.47
2022-10-29T02:29:02.831Z,12.46
2022-10-29T02:31:32.024Z,12.44
2022-10-29T02:34:04.476Z,12.42
2022-10-29T02:36:33.902Z,12.43
2022-10-29T02:39:05.787Z,12.44
2022-10-29T02:41:38.224Z,12.46
2022-10-29T02:44:11.213Z,12.46
2022-10-29T02:46:41.987Z,12.43
2022-10-29T02:49:13.193Z,12.46
2022-10-29T02:51:42.015Z,12.47
2022-10-29T02:54:14.319Z,12.49
2022-10-29T02:56:43.951Z,12.47
2022-10-29T02:59:12.537Z,12.43
2022-10-29T03:01:43.629Z,12.41
2022-10-29T03:04:16.266Z,12.39
2022-10-29T03:06:44.910Z,12.40
2022-10-29T03:09:17.270Z,12.42
2022-10-29T03:11:46.463Z,12.41
2022-10-29T03:14:16.479Z,12.43
2022-10-29T03:16:45.105Z,12.42
2022-10-29T03:19:15.865Z,12.42
2022-10-29T03:21:44.937Z,12.43
2022-10-29T03:24:15.085Z,12.43
2022-10-29T03:26:44.059Z,12.45
2022-10-29T03:29:19.494Z,12.44
2022-10-29T03:31:54.332Z,12.44
2022-10-29T03:34:24.994Z,12.45
2022-10-29T03:36:53.549Z,12.48
2022-10-29T03:39:25.414Z,12.49
2022-10-29T03:41:55.042Z,12.48
2022-10-29T03:44:26.738Z,12.48
2022-10-29T03:46:55.285Z,12.46
2022-10-29T03:49:28.937Z,12.49
2022-10-29T03:52:00.580Z,12.53
2022-10-29T03:54:32.097Z,12.53
2022-10-29T03:57:00.880Z,12.53
2022-10-29T03:59:33.532Z,12.54
2022-10-29T04:02:02.306Z,12.53
2022-10-29T04:04:32.414Z,12.53
2022-10-29T04:07:01.959Z,12.55
2022-10-29T04:09:31.175Z,12.57
2022-10-29T04:12:03.188Z,12.57
2022-10-29T04:14:34.425Z,12.56
2022-10-29T04:17:03.102Z,12.56
2022-10-29T04:19:36.611Z,12.56
2022-10-29T04:28:42.063Z,12.59
2022-10-29T04:30:41.788Z,12.59
2022-10-29T04:33:12.314Z,12.59
2022-10-29T04:35:45.093Z,12.58
2022-10-29T04:38:15.797Z,12.55
2022-10-29T04:40:48.542Z,12.54
2022-10-29T04:43:19.885Z,12.57
2022-10-29T04:45:55.762Z,12.57
2022-10-29T04:48:29.184Z,12.58
2022-10-29T04:50:59.246Z,12.58
2022-10-29T04:53:30.686Z,12.57
2022-10-29T04:56:05.676Z,12.56
2022-10-29T04:58:43.258Z,12.55
2022-10-29T05:01:13.677Z,12.53
2022-10-29T05:03:42.893Z,12.50
2022-10-29T05:06:15.666Z,12.49
2022-10-29T05:08:47.052Z,12.44
2022-10-29T05:11:15.555Z,12.44
2022-10-29T05:13:45.319Z,12.43
2022-10-29T05:16:16.161Z,12.45
2022-10-29T05:18:46.018Z,12.41
2022-10-29T05:21:17.768Z,12.39
2022-10-29T05:23:47.506Z,12.40
2022-10-29T05:26:17.189Z,12.38
2022-10-29T05:28:46.490Z,12.34
2022-10-29T05:31:16.715Z,12.38
2022-10-29T05:33:55.481Z,12.38
2022-10-29T05:36:33.684Z,12.36
2022-10-29T05:39:03.710Z,12.36
2022-10-29T05:41:35.576Z,12.36
2022-10-29T05:44:06.830Z,12.35
2022-10-29T05:46:36.838Z,12.34
2022-10-29T05:49:07.281Z,12.34
2022-10-29T05:51:38.628Z,12.35
2022-10-29T05:54:09.006Z,12.38
2022-10-29T05:56:37.558Z,12.38
2022-10-29T05:59:06.507Z,12.38
2022-10-29T06:01:40.303Z,12.41
2022-10-29T06:04:11.342Z,12.42
2022-10-29T06:06:42.247Z,12.41
2022-10-29T06:09:11.411Z,12.44
2022-10-29T06:11:41.374Z,12.42
2022-10-29T06:14:13.193Z,12.43
2022-10-29T06:16:45.238Z,12.44
2022-10-29T06:19:19.499Z,12.45
2022-10-29T06:21:52.514Z,12.44
2022-10-29T06:24:26.581Z,12.46
2022-10-29T06:26:56.920Z,12.43
2022-10-29T06:29:25.502Z,12.44
2022-10-29T06:31:55.722Z,12.42
2022-10-29T06:34:24.515Z,12.44
2022-10-29T06:36:59.753Z,12.45
2022-10-29T06:39:28.737Z,12.48
2022-10-29T06:41:57.300Z,12.46
2022-10-29T06:44:28.710Z,12.48
2022-10-29T06:46:58.677Z,12.48
2022-10-29T06:49:27.247Z,12.48
2022-10-29T06:51:57.294Z,12.49
2022-10-29T06:54:27.049Z,12.52
2022-10-29T06:56:56.036Z,12.54
2022-10-29T06:59:28.172Z,12.56
2022-10-29T07:01:57.044Z,12.58
2022-10-29T07:04:39.849Z,12.60
2022-10-29T07:07:09.900Z,12.63
2022-10-29T07:09:42.947Z,12.66
2022-10-29T07:12:18.366Z,12.68
2022-10-29T07:14:46.966Z,12.69
2022-10-29T07:17:16.311Z,12.69
2022-10-29T07:19:45.636Z,12.71
2022-10-29T07:22:15.963Z,12.72
2022-10-29T07:24:44.441Z,12.74
2022-10-29T07:27:14.473Z,12.76
2022-10-29T07:29:44.711Z,12.78
2022-10-29T07:32:13.260Z,12.80
2022-10-29T07:34:44.699Z,12.81
2022-10-29T07:37:15.666Z,12.83
2022-10-29T07:39:45.173Z,12.85
2022-10-29T07:42:14.407Z,12.87
2022-10-29T07:44:43.013Z,12.90
2022-10-29T07:47:11.441Z,12.93
2022-10-29T07:49:40.589Z,12.96
2022-10-29T07:52:11.821Z,12.99
2022-10-29T07:54:43.763Z,13.01
2022-10-29T07:57:12.384Z,13.04
2022-10-29T07:59:42.424Z,13.06
2022-10-29T08:02:13.852Z,13.10
2022-10-29T08:04:42.936Z,13.15
2022-10-29T08:07:11.990Z,13.18
2022-10-29T08:09:46.350Z,13.22
2022-10-29T08:12:15.168Z,13.25
2022-10-29T08:14:45.591Z,13.30
2022-10-29T08:17:14.120Z,13.33
2022-10-29T08:19:42.589Z,13.37
2022-10-29T08:22:11.607Z,13.40
2022-10-29T08:24:42.141Z,13.44
2022-10-29T08:27:17.248Z,13.48
2022-10-29T08:29:47.612Z,13.53
2022-10-29T08:32:16.353Z,13.56
2022-10-29T08:34:45.198Z,13.59
2022-10-29T08:37:14.325Z,13.64
2022-10-29T08:39:45.784Z,13.67
2022-10-29T08:42:34.779Z,13.71
2022-10-29T08:45:25.874Z,13.75
2022-10-29T08:48:29.731Z,13.80
2022-10-29T08:51:11.524Z,13.84
2022-10-29T08:53:54.200Z,13.89
2022-10-29T08:56:44.011Z,13.94
2022-10-29T08:59:18.297Z,13.98
2022-10-29T09:01:48.934Z,14.02
2022-10-29T09:04:33.107Z,14.07
2022-10-29T09:07:28.676Z,14.13
2022-10-29T09:10:05.508Z,14.20
2022-10-29T09:13:05.680Z,14.25
2022-10-29T09:16:02.301Z,14.33
2022-10-29T09:18:54.246Z,14.41
2022-10-29T09:21:35.865Z,14.50
2022-10-29T09:24:15.711Z,14.58
2022-10-29T09:26:59.923Z,14.66
2022-10-29T09:29:57.445Z,14.75
2022-10-29T09:32:34.877Z,14.83
2022-10-29T09:35:13.908Z,14.92
2022-10-29T09:37:54.748Z,15.00
2022-10-29T09:40:35.159Z,15.09
2022-10-29T09:43:21.122Z,15.18
2022-10-29T09:46:09.485Z,15.26
2022-10-29T09:48:54.510Z,15.33
2022-10-29T09:51:38.260Z,15.43
2022-10-29T09:54:09.485Z,15.50
2022-10-29T09:56:41.669Z,15.56
2022-10-29T09:59:28.312Z,15.65
2022-10-29T10:02:04.316Z,15.72
2022-10-29T10:04:42.773Z,15.81
2022-10-29T10:07:19.067Z,15.85
2022-10-29T10:10:00.462Z,15.92
2022-10-29T10:12:45.178Z,16.03
2022-10-29T10:15:34.053Z,16.11
2022-10-29T10:18:07.514Z,16.16
2022-10-29T10:20:45.653Z,16.21
2022-10-29T10:23:27.206Z,16.25
2022-10-29T10:26:02.335Z,16.33
2022-10-29T10:28:35.614Z,16.39
2022-10-29T10:31:16.265Z,16.43
2022-10-29T10:33:56.916Z,16.48
2022-10-29T10:36:35.650Z,16.54
2022-10-29T10:39:10.630Z,16.59
2022-10-29T10:41:46.618Z,16.62
2022-10-29T10:44:16.298Z,16.65
2022-10-29T10:46:49.014Z,16.65
2022-10-29T10:49:30.370Z,16.69
2022-10-29T10:52:03.274Z,16.69
2022-10-29T10:54:38.915Z,16.70
2022-10-29T10:57:25.948Z,16.70
2022-10-29T11:00:08.693Z,16.71
2022-10-29T11:02:53.778Z,16.74
2022-10-29T11:05:30.197Z,16.75
2022-10-29T11:08:10.116Z,16.77
2022-10-29T11:10:49.984Z,16.77
2022-10-29T11:13:23.908Z,16.80
2022-10-29T11:16:04.033Z,16.81
2022-10-29T11:18:41.271Z,16.82
2022-10-29T11:21:20.537Z,16.85
2022-10-29T11:24:03.236Z,16.85
2022-10-29T11:26:41.888Z,16.88
2022-10-29T11:29:26.397Z,16.91
2022-10-29T11:32:03.533Z,16.94
2022-10-29T11:34:48.831Z,16.96
2022-10-29T11:37:30.730Z,17.01
2022-10-29T11:40:05.471Z,17.03
2022-10-29T11:42:34.063Z,17.04
2022-10-29T11:45:03.051Z,17.06
2022-10-29T11:48:10.609Z,17.09
2022-10-29T11:50:54.311Z,17.13
2022-10-29T11:53:56.781Z,17.15
2022-10-29T11:56:48.708Z,17.19
2022-10-29T11:59:36.392Z,17.22
2022-10-29T12:02:33.785Z,17.25
2022-10-29T12:05:15.389Z,17.28
2022-10-29T12:08:10.104Z,17.29
2022-10-29T12:10:58.236Z,17.33
2022-10-29T12:13:43.420Z,17.36
2022-10-29T12:16:28.758Z,17.40
2022-10-29T12:19:14.294Z,17.46
2022-10-29T12:21:53.781Z,17.52
2022-10-29T12:24:46.154Z,17.55
2022-10-29T12:27:30.358Z,17.59
2022-10-29T12:30:05.683Z,17.65
2022-10-29T12:32:50.091Z,17.68
2022-10-29T12:35:30.787Z,17.74
2022-10-29T12:38:26.220Z,17.78
2022-10-29T12:41:04.851Z,17.84
2022-10-29T12:43:40.882Z,17.89
2022-10-29T12:46:26.880Z,17.95
2022-10-29T12:49:12.289Z,18.01
2022-10-29T12:51:52.910Z,18.07
2022-10-29T12:54:40.241Z,18.14
2022-10-29T12:57:30.861Z,18.18
2022-10-29T13:00:47.903Z,18.24
2022-10-29T13:04:03.986Z,18.29
2022-10-29T13:07:02.052Z,18.33
2022-10-29T13:09:34.222Z,18.34
2022-10-29T13:12:10.392Z,18.36
2022-10-29T13:14:44.078Z,18.41
2022-10-29T13:17:33.269Z,18.44
2022-10-29T13:20:07.612Z,18.49
2022-10-29T13:22:57.330Z,18.52
2022-10-29T13:25:51.701Z,18.56
2022-10-29T13:28:53.199Z,18.58
2022-10-29T13:31:50.537Z,18.65
2022-10-29T13:34:59.610Z,18.69
2022-10-29T13:38:17.403Z,18.73
2022-10-29T13:41:17.171Z,18.77
2022-10-29T13:44:00.175Z,18.80
2022-10-29T13:47:01.179Z,18.84
2022-10-29T13:49:36.308Z,18.85
2022-10-29T13:52:18.902Z,18.85
2022-10-29T13:54:52.100Z,18.87
2022-10-29T13:57:27.400Z,18.87
2022-10-29T14:00:04.080Z,18.85
2022-10-29T14:02:52.480Z,18.85
2022-10-29T14:05:28.919Z,18.89
2022-10-29T14:08:13.115Z,18.88
2022-10-29T14:10:53.129Z,18.86
2022-10-29T14:13:33.261Z,18.86
2022-10-29T14:16:10.741Z,18.84
2022-10-29T14:18:43.076Z,18.82
2022-10-29T14:21:20.886Z,18.81
2022-10-29T14:24:12.071Z,18.77
2022-10-29T14:26:44.598Z,18.76
2022-10-29T14:29:25.602Z,18.75
2022-10-29T14:32:08.920Z,18.70
2022-10-29T14:34:40.688Z,18.69
2022-10-29T14:37:19.529Z,18.65
2022-10-29T14:39:58.248Z,18.64
2022-10-29T14:42:34.525Z,18.65
2022-10-29T14:45:11.129Z,18.64
2022-10-29T14:47:40.270Z,18.63
2022-10-29T14:50:20.207Z,18.63
2022-10-29T14:52:54.285Z,18.62
2022-10-29T14:58:26.418Z,18.63
2022-10-29T15:00:59.069Z,18.63
2022-10-29T15:03:36.349Z,18.59
2022-10-29T15:06:18.715Z,18.57
2022-10-29T15:08:57.886Z,18.55
2022-10-29T15:11:39.155Z,18.54
2022-10-29T15:16:56.450Z,18.50
2022-10-29T15:19:25.432Z,18.46
2022-10-29T15:21:54.097Z,18.45
2022-10-29T15:24:27.105Z,18.43
2022-10-29T15:27:07.436Z,18.39
2022-10-29T15:29:43.478Z,18.38
2022-10-29T15:32:21.649Z,18.35
2022-10-29T15:34:55.567Z,18.33
2022-10-29T15:37:42.612Z,18.31
2022-10-29T15:40:20.958Z,18.28
2022-10-29T15:43:00.891Z,18.25
2022-10-29T15:45:29.944Z,18.19
2022-10-29T15:48:30.545Z,18.14
2022-10-29T15:51:00.119Z,18.07
2022-10-29T15:56:15.310Z,17.99
2022-10-29T15:58:45.299Z,17.97
2022-10-29T16:01:18.687Z,17.93
2022-10-29T16:03:50.504Z,17.90
2022-10-29T16:06:20.449Z,17.85
2022-10-29T16:08:59.609Z,17.82
2022-10-29T16:11:28.806Z,17.79
2022-10-29T16:14:00.618Z,17.75
2022-10-29T16:16:32.778Z,17.70
2022-10-29T16:19:03.376Z,17.65
2022-10-29T16:21:32.545Z,17.60
2022-10-29T16:24:00.962Z,17.59
2022-10-29T16:26:30.464Z,17.55
2022-10-29T16:29:01.724Z,17.52
2022-10-29T16:31:31.677Z,17.51
2022-10-29T16:34:06.070Z,17.47
2022-10-29T16:36:34.608Z,17.43
2022-10-29T16:39:05.459Z,17.39
2022-10-29T16:41:37.257Z,17.34
2022-10-29T16:44:08.340Z,17.31
2022-10-29T16:46:37.931Z,17.24
2022-10-29T16:49:07.399Z,17.18
2022-10-29T16:51:36.297Z,17.12
2022-10-29T16:54:04.936Z,17.10
2022-10-29T16:56:33.389Z,17.06
2022-10-29T16:59:02.362Z,16.99
2022-10-29T17:01:33.794Z,16.96
2022-10-29T17:04:05.238Z,16.89
2022-10-29T17:06:35.419Z,16.84
2022-10-29T17:09:09.441Z,16.79
2022-10-29T17:11:41.556Z,16.71
2022-10-29T17:14:10.665Z,16.65
2022-10-29T17:16:40.530Z,16.58
2022-10-29T17:19:13.014Z,16.59
2022-10-29T17:21:41.629Z,16.52
2022-10-29T17:24:12.645Z,16.46
2022-10-29T17:26:42.687Z,16.43
2022-10-29T17:29:12.330Z,16.33
2022-10-29T17:31:44.366Z,16.26
2022-10-29T17:34:15.563Z,16.20
2022-10-29T17:36:44.753Z,16.17
2022-10-29T17:39:16.150Z,16.14
2022-10-29T17:41:45.316Z,16.06
2022-10-29T17:44:14.337Z,15.99
2022-10-29T17:46:46.573Z,15.88
2022-10-29T17:49:16.367Z,15.88
2022-10-29T17:51:44.879Z,15.85
2022-10-29T17:54:22.300Z,15.83
2022-10-29T17:56:51.526Z,15.82
2022-10-29T17:59:21.531Z,15.76
2022-10-29T18:01:51.491Z,15.68
2022-10-29T18:04:21.243Z,15.63
2022-10-29T18:06:51.080Z,15.59
2022-10-29T18:09:21.216Z,15.56
2022-10-29T18:11:52.414Z,15.48
2022-10-29T18:14:20.951Z,15.47
2022-10-29T18:16:51.020Z,15.45
2022-10-29T18:19:21.055Z,15.41
2022-10-29T18:21:49.516Z,15.34
2022-10-29T18:24:19.415Z,15.29
2022-10-29T18:26:52.110Z,15.28
2022-10-29T18:29:20.805Z,15.24
2022-10-29T18:31:51.197Z,15.23
2022-10-29T18:34:19.655Z,15.13
2022-10-29T18:36:49.127Z,15.12
2022-10-29T18:39:18.159Z,15.07
2022-10-29T18:41:46.818Z,15.05
2022-10-29T18:44:15.356Z,15.06
2022-10-29T18:46:43.887Z,14.95
2022-10-29T18:49:14.567Z,14.90
2022-10-29T18:51:43.351Z,14.89
2022-10-29T18:54:13.081Z,14.93
2022-10-29T18:56:43.976Z,14.93
2022-10-29T18:59:13.446Z,14.85
2022-10-29T19:01:42.253Z,14.78
2022-10-29T19:04:16.219Z,14.77
2022-10-29T19:06:45.257Z,14.79
2022-10-29T19:09:14.077Z,14.80
2022-10-29T19:11:42.771Z,14.77
2022-10-29T19:14:15.409Z,14.74
2022-10-29T19:16:44.011Z,14.68
2022-10-29T19:19:17.249Z,14.57
2022-10-29T19:21:48.562Z,14.64
2022-10-29T19:24:17.571Z,14.65
2022-10-29T19:26:46.539Z,14.64
2022-10-29T19:29:16.132Z,14.61
2022-10-29T19:31:47.671Z,14.55
2022-10-29T19:34:18.075Z,14.54
2022-10-29T19:36:46.740Z,14.50
2022-10-29T19:39:15.370Z,14.47
2022-10-29T19:41:43.994Z,14.44
2022-10-29T19:44:12.678Z,14.44
2022-10-29T19:46:42.250Z,14.41
2022-10-29T19:49:11.368Z,14.40
2022-10-29T19:51:43.420Z,14.37
2022-10-29T19:54:13.040Z,14.37
2022-10-29T19:56:41.727Z,14.36
2022-10-29T19:59:10.602Z,14.28
2022-10-29T20:01:41.945Z,14.28
2022-10-29T20:04:10.749Z,14.29
2022-10-29T20:06:41.141Z,14.26
2022-10-29T20:09:09.689Z,14.19
2022-10-29T20:11:38.732Z,14.21
2022-10-29T20:14:07.388Z,14.19
2022-10-29T20:16:36.364Z,14.13
2022-10-29T20:19:05.709Z,14.08
2022-10-29T20:21:34.632Z,14.10
2022-10-29T20:24:05.346Z,14.08
2022-10-29T20:26:33.965Z,14.07
2022-10-29T20:29:02.565Z,14.06
2022-10-29T20:31:37.205Z,14.06
2022-10-29T20:34:11.054Z,14.02
2022-10-29T20:36:39.786Z,13.96
2022-10-29T20:39:13.282Z,13.98
2022-10-29T20:41:42.284Z,13.95
2022-10-29T20:44:11.536Z,13.89
2022-10-29T20:46:43.521Z,13.90
2022-10-29T20:49:12.496Z,13.83
2022-10-29T20:51:41.087Z,13.87
2022-10-29T20:54:11.250Z,13.83
2022-10-29T20:56:40.591Z,13.82
2022-10-29T20:59:09.448Z,13.84
2022-10-29T21:01:38.122Z,13.83
2022-10-29T21:04:06.959Z,13.83
2022-10-29T21:06:35.611Z,13.84
2022-10-29T21:09:04.255Z,13.83
2022-10-29T21:11:34.285Z,13.79
2022-10-29T21:14:03.097Z,13.80
2022-10-29T21:16:32.072Z,13.81
2022-10-29T21:19:03.294Z,13.79
2022-10-29T21:21:32.144Z,13.80
2022-10-29T21:24:01.964Z,13.74
2022-10-29T21:26:31.434Z,13.69
2022-10-29T21:29:01.831Z,13.65
2022-10-29T21:31:31.040Z,13.63
2022-10-29T21:33:59.611Z,13.63
2022-10-29T21:36:28.237Z,13.63
2022-10-29T21:38:57.385Z,13.60
2022-10-29T21:41:26.149Z,13.58
2022-10-29T21:43:55.115Z,13.59
2022-10-29T21:46:26.065Z,13.58
2022-10-29T21:48:56.949Z,13.58
2022-10-29T21:51:25.605Z,13.57
2022-10-29T21:53:54.479Z,13.53
2022-10-29T21:56:23.081Z,13.49
2022-10-29T21:58:52.864Z,13.51
2022-10-29T22:01:22.710Z,13.53
2022-10-29T22:03:53.286Z,13.52
2022-10-29T22:06:25.866Z,13.48
2022-10-29T22:08:57.358Z,13.46
2022-10-29T22:11:28.530Z,13.43
2022-10-29T22:13:57.427Z,13.43
2022-10-29T22:16:25.961Z,13.44
2022-10-29T22:18:56.470Z,13.41
2022-10-29T22:21:27.253Z,13.42
2022-10-29T22:23:59.903Z,13.39
2022-10-29T22:26:31.150Z,13.32
2022-10-29T22:28:59.693Z,13.31
2022-10-29T22:31:28.503Z,13.29
2022-10-29T22:33:59.163Z,13.31
2022-10-29T22:36:28.835Z,13.32
2022-10-29T22:38:59.341Z,13.32
2022-10-29T22:41:30.298Z,13.29
2022-10-29T22:44:00.132Z,13.28
2022-10-29T22:46:31.357Z,13.28
2022-10-29T22:49:03.184Z,13.26
2022-10-29T22:51:34.114Z,13.26
2022-10-29T22:54:03.921Z,13.21
2022-10-29T22:56:36.245Z,13.17
2022-10-29T22:59:06.809Z,13.17
2022-10-29T23:01:42.124Z,13.17
2022-10-29T23:04:15.752Z,13.16
2022-10-29T23:06:44.436Z,13.18
2022-10-29T23:09:12.940Z,13.17
2022-10-29T23:11:42.258Z,13.15
2022-10-29T23:14:10.974Z,13.13
2022-10-29T23:16:39.573Z,13.13
2022-10-29T23:19:08.274Z,13.15
2022-10-29T23:21:38.552Z,13.07
2022-10-29T23:24:08.053Z,13.07
2022-10-29T23:26:36.650Z,13.04
2022-10-29T23:29:06.074Z,13.06
2022-10-29T23:31:35.610Z,13.07
2022-10-29T23:34:04.096Z,13.07
2022-10-29T23:36:32.681Z,13.04
2022-10-29T23:39:04.067Z,13.03
2022-10-29T23:41:33.149Z,13.03
2022-10-29T23:44:02.419Z,12.98
2022-10-29T23:46:30.938Z,12.95
2022-10-29T23:49:00.432Z,12.93
2022-10-29T23:51:29.021Z,12.94
2022-10-29T23:53:58.263Z,12.91
2022-10-29T23:56:28.899Z,12.89
2022-10-29T23:58:59.019Z,12.88
